sensor_id;sensor_type;location;lat;lon;timestamp;P1;durP1;ratioP1;P2;durP2;ratioP2
26820;SDS011;37186;51.394;5.454;2022-07-06T00:01:39;75.20;;;72.30;;
26820;SDS011;37186;51.394;5.454;2022-07-06T00:04:40;70.13;;;67.50;;
26820;SDS011;37186;51.394;5.454;2022-07-06T00:07:41;71.50;;;68.78;;
26820;SDS011;37186;51.394;5.454;2022-07-06T00:10:41;68.43;;;65.82;;
26820;SDS011;37186;51.394;5.454;2022-07-06T00:13:42;76.05;;;73.13;;
26820;SDS011;37186;51.394;5.454;2022-07-06T00:16:42;71.40;;;68.65;;
26820;SDS011;37186;51.394;5.454;2022-07-06T00:19:43;74.15;;;71.32;;
26820;SDS011;37186;51.394;5.454;2022-07-06T00:22:43;72.10;;;69.35;;
26820;SDS011;37186;51.394;5.454;2022-07-06T00:25:44;69.57;;;66.97;;
26820;SDS011;37186;51.394;5.454;2022-07-06T00:28:45;72.10;;;69.40;;
26820;SDS011;37186;51.394;5.454;2022-07-06T00:31:45;75.88;;;73.00;;
26820;SDS011;37186;51.394;5.454;2022-07-06T00:34:46;75.63;;;72.78;;
26820;SDS011;37186;51.394;5.454;2022-07-06T00:37:47;74.32;;;71.55;;
26820;SDS011;37186;51.394;5.454;2022-07-06T00:40:47;65.85;;;63.40;;
26820;SDS011;37186;51.394;5.454;2022-07-06T00:43:51;71.38;;;68.72;;
26820;SDS011;37186;51.394;5.454;2022-07-06T00:46:55;74.80;;;72.00;;
26820;SDS011;37186;51.394;5.454;2022-07-06T00:49:55;70.90;;;68.25;;
26820;SDS011;37186;51.394;5.454;2022-07-06T00:53:14;69.45;;;66.85;;
26820;SDS011;37186;51.394;5.454;2022-07-06T00:56:15;72.13;;;69.40;;
26820;SDS011;37186;51.394;5.454;2022-07-06T00:59:15;72.65;;;69.88;;
26820;SDS011;37186;51.394;5.454;2022-07-06T01:02:16;72.88;;;70.13;;
26820;SDS011;37186;51.394;5.454;2022-07-06T01:05:16;68.90;;;66.30;;
26820;SDS011;37186;51.394;5.454;2022-07-06T01:08:18;70.82;;;68.15;;
26820;SDS011;37186;51.394;5.454;2022-07-06T01:11:19;64.47;;;62.08;;
26820;SDS011;37186;51.394;5.454;2022-07-06T01:14:20;68.25;;;65.65;;
26820;SDS011;37186;51.394;5.454;2022-07-06T01:17:21;62.80;;;60.45;;
26820;SDS011;37186;51.394;5.454;2022-07-06T01:20:22;60.63;;;58.35;;
26820;SDS011;37186;51.394;5.454;2022-07-06T01:23:24;64.15;;;61.72;;
26820;SDS011;37186;51.394;5.454;2022-07-06T01:26:24;62.25;;;59.90;;
26820;SDS011;37186;51.394;5.454;2022-07-06T01:29:25;61.67;;;59.38;;
26820;SDS011;37186;51.394;5.454;2022-07-06T01:32:26;59.63;;;57.38;;
26820;SDS011;37186;51.394;5.454;2022-07-06T01:35:27;57.45;;;55.28;;
26820;SDS011;37186;51.394;5.454;2022-07-06T01:38:31;61.20;;;58.88;;
26820;SDS011;37186;51.394;5.454;2022-07-06T01:41:32;55.60;;;53.53;;
26820;SDS011;37186;51.394;5.454;2022-07-06T01:44:32;60.85;;;58.55;;
26820;SDS011;37186;51.394;5.454;2022-07-06T01:47:33;58.85;;;56.67;;
26820;SDS011;37186;51.394;5.454;2022-07-06T01:50:34;52.90;;;50.92;;
26820;SDS011;37186;51.394;5.454;2022-07-06T01:53:34;52.13;;;50.20;;
26820;SDS011;37186;51.394;5.454;2022-07-06T01:56:35;53.35;;;51.38;;
26820;SDS011;37186;51.394;5.454;2022-07-06T01:59:36;52.15;;;50.22;;
26820;SDS011;37186;51.394;5.454;2022-07-06T02:02:36;53.53;;;51.53;;
26820;SDS011;37186;51.394;5.454;2022-07-06T02:05:37;47.75;;;46.00;;
26820;SDS011;37186;51.394;5.454;2022-07-06T02:08:38;48.20;;;46.42;;
26820;SDS011;37186;51.394;5.454;2022-07-06T02:11:41;48.60;;;46.83;;
26820;SDS011;37186;51.394;5.454;2022-07-06T02:14:41;47.63;;;45.90;;
26820;SDS011;37186;51.394;5.454;2022-07-06T02:17:42;45.95;;;44.30;;
26820;SDS011;37186;51.394;5.454;2022-07-06T02:20:43;47.60;;;45.85;;
26820;SDS011;37186;51.394;5.454;2022-07-06T02:23:43;48.50;;;46.73;;
26820;SDS011;37186;51.394;5.454;2022-07-06T02:26:44;47.30;;;45.58;;
26820;SDS011;37186;51.394;5.454;2022-07-06T02:29:44;46.23;;;44.57;;
26820;SDS011;37186;51.394;5.454;2022-07-06T02:32:45;44.33;;;42.72;;
26820;SDS011;37186;51.394;5.454;2022-07-06T02:35:46;47.13;;;45.40;;
26820;SDS011;37186;51.394;5.454;2022-07-06T02:38:46;46.03;;;44.35;;
26820;SDS011;37186;51.394;5.454;2022-07-06T02:41:47;45.28;;;43.65;;
26820;SDS011;37186;51.394;5.454;2022-07-06T02:44:47;45.80;;;44.17;;
26820;SDS011;37186;51.394;5.454;2022-07-06T02:47:47;42.15;;;40.67;;
26820;SDS011;37186;51.394;5.454;2022-07-06T02:50:48;42.63;;;41.10;;
26820;SDS011;37186;51.394;5.454;2022-07-06T02:53:49;43.10;;;41.55;;
26820;SDS011;37186;51.394;5.454;2022-07-06T02:56:49;43.63;;;42.08;;
26820;SDS011;37186;51.394;5.454;2022-07-06T02:59:53;42.60;;;41.10;;
26820;SDS011;37186;51.394;5.454;2022-07-06T03:02:53;40.67;;;39.25;;
26820;SDS011;37186;51.394;5.454;2022-07-06T03:05:53;42.45;;;40.95;;
26820;SDS011;37186;51.394;5.454;2022-07-06T03:08:54;42.88;;;41.35;;
26820;SDS011;37186;51.394;5.454;2022-07-06T03:11:54;43.05;;;41.53;;
26820;SDS011;37186;51.394;5.454;2022-07-06T03:14:55;45.03;;;43.40;;
26820;SDS011;37186;51.394;5.454;2022-07-06T03:17:55;44.78;;;43.17;;
26820;SDS011;37186;51.394;5.454;2022-07-06T03:20:56;44.10;;;42.53;;
26820;SDS011;37186;51.394;5.454;2022-07-06T03:23:56;41.20;;;39.75;;
26820;SDS011;37186;51.394;5.454;2022-07-06T03:26:57;41.10;;;39.63;;
26820;SDS011;37186;51.394;5.454;2022-07-06T03:29:57;41.85;;;40.38;;
26820;SDS011;37186;51.394;5.454;2022-07-06T03:32:58;44.10;;;42.50;;
26820;SDS011;37186;51.394;5.454;2022-07-06T03:35:58;41.93;;;40.43;;
26820;SDS011;37186;51.394;5.454;2022-07-06T03:38:59;43.60;;;42.03;;
26820;SDS011;37186;51.394;5.454;2022-07-06T03:41:59;44.90;;;43.27;;
26820;SDS011;37186;51.394;5.454;2022-07-06T03:45:00;46.53;;;44.83;;
26820;SDS011;37186;51.394;5.454;2022-07-06T03:48:01;48.73;;;46.97;;
26820;SDS011;37186;51.394;5.454;2022-07-06T03:51:01;47.70;;;45.97;;
26820;SDS011;37186;51.394;5.454;2022-07-06T03:54:02;46.13;;;44.47;;
26820;SDS011;37186;51.394;5.454;2022-07-06T03:57:02;46.83;;;45.13;;
26820;SDS011;37186;51.394;5.454;2022-07-06T04:00:03;48.40;;;46.63;;
26820;SDS011;37186;51.394;5.454;2022-07-06T04:03:05;47.60;;;45.87;;
26820;SDS011;37186;51.394;5.454;2022-07-06T04:06:05;47.83;;;46.10;;
26820;SDS011;37186;51.394;5.454;2022-07-06T04:09:06;51.47;;;49.57;;
26820;SDS011;37186;51.394;5.454;2022-07-06T04:12:06;50.43;;;48.60;;
26820;SDS011;37186;51.394;5.454;2022-07-06T04:15:07;51.50;;;49.63;;
26820;SDS011;37186;51.394;5.454;2022-07-06T04:18:08;50.27;;;48.43;;
26820;SDS011;37186;51.394;5.454;2022-07-06T04:21:09;50.10;;;48.27;;
26820;SDS011;37186;51.394;5.454;2022-07-06T04:24:09;52.60;;;50.67;;
26820;SDS011;37186;51.394;5.454;2022-07-06T04:27:10;50.43;;;48.60;;
26820;SDS011;37186;51.394;5.454;2022-07-06T04:30:10;52.37;;;50.43;;
26820;SDS011;37186;51.394;5.454;2022-07-06T04:33:11;53.13;;;51.17;;
26820;SDS011;37186;51.394;5.454;2022-07-06T04:36:12;53.60;;;51.63;;
26820;SDS011;37186;51.394;5.454;2022-07-06T04:39:12;53.30;;;51.33;;
26820;SDS011;37186;51.394;5.454;2022-07-06T04:42:13;57.70;;;55.57;;
26820;SDS011;37186;51.394;5.454;2022-07-06T04:45:13;56.00;;;53.93;;
26820;SDS011;37186;51.394;5.454;2022-07-06T04:48:14;59.23;;;57.00;;
26820;SDS011;37186;51.394;5.454;2022-07-06T04:51:14;57.73;;;55.60;;
26820;SDS011;37186;51.394;5.454;2022-07-06T04:54:15;57.27;;;55.10;;
26820;SDS011;37186;51.394;5.454;2022-07-06T04:57:15;55.47;;;53.40;;
26820;SDS011;37186;51.394;5.454;2022-07-06T05:00:16;55.50;;;53.43;;
26820;SDS011;37186;51.394;5.454;2022-07-06T05:03:17;55.60;;;53.50;;
26820;SDS011;37186;51.394;5.454;2022-07-06T05:06:17;43.45;;;41.88;;
26820;SDS011;37186;51.394;5.454;2022-07-06T05:09:19;39.40;;;38.03;;
26820;SDS011;37186;51.394;5.454;2022-07-06T05:12:20;42.50;;;40.97;;
26820;SDS011;37186;51.394;5.454;2022-07-06T05:15:20;42.10;;;40.63;;
26820;SDS011;37186;51.394;5.454;2022-07-06T05:18:21;40.55;;;39.10;;
26820;SDS011;37186;51.394;5.454;2022-07-06T05:21:21;42.67;;;41.13;;
26820;SDS011;37186;51.394;5.454;2022-07-06T05:24:22;43.13;;;41.58;;
26820;SDS011;37186;51.394;5.454;2022-07-06T05:27:22;42.63;;;41.08;;
26820;SDS011;37186;51.394;5.454;2022-07-06T05:30:24;45.90;;;44.23;;
26820;SDS011;37186;51.394;5.454;2022-07-06T05:33:27;53.65;;;51.72;;
26820;SDS011;37186;51.394;5.454;2022-07-06T05:36:27;52.35;;;50.45;;
26820;SDS011;37186;51.394;5.454;2022-07-06T05:39:28;55.42;;;53.38;;
26820;SDS011;37186;51.394;5.454;2022-07-06T05:42:28;53.22;;;51.28;;
26820;SDS011;37186;51.394;5.454;2022-07-06T05:45:29;58.08;;;55.95;;
26820;SDS011;37186;51.394;5.454;2022-07-06T05:48:29;57.30;;;55.20;;
26820;SDS011;37186;51.394;5.454;2022-07-06T05:51:48;55.30;;;53.28;;
26820;SDS011;37186;51.394;5.454;2022-07-06T05:54:49;57.65;;;55.53;;
26820;SDS011;37186;51.394;5.454;2022-07-06T05:57:50;62.65;;;60.33;;
26820;SDS011;37186;51.394;5.454;2022-07-06T06:00:50;69.10;;;66.53;;
26820;SDS011;37186;51.394;5.454;2022-07-06T06:03:51;75.70;;;72.85;;
26820;SDS011;37186;51.394;5.454;2022-07-06T06:06:51;75.47;;;72.63;;
26820;SDS011;37186;51.394;5.454;2022-07-06T06:09:52;82.88;;;79.72;;
26820;SDS011;37186;51.394;5.454;2022-07-06T06:12:52;75.45;;;72.57;;
26820;SDS011;37186;51.394;5.454;2022-07-06T06:15:53;78.00;;;75.03;;
26820;SDS011;37186;51.394;5.454;2022-07-06T06:18:53;80.32;;;77.20;;
26820;SDS011;37186;51.394;5.454;2022-07-06T06:21:54;77.65;;;74.65;;
26820;SDS011;37186;51.394;5.454;2022-07-06T06:24:54;71.80;;;69.05;;
26820;SDS011;37186;51.394;5.454;2022-07-06T06:27:55;72.80;;;70.00;;
26820;SDS011;37186;51.394;5.454;2022-07-06T06:30:56;77.07;;;74.07;;
26820;SDS011;37186;51.394;5.454;2022-07-06T06:33:56;78.90;;;75.88;;
26820;SDS011;37186;51.394;5.454;2022-07-06T06:36:57;83.53;;;80.30;;
26820;SDS011;37186;51.394;5.454;2022-07-06T06:39:57;73.72;;;70.93;;
26820;SDS011;37186;51.394;5.454;2022-07-06T06:42:58;74.75;;;71.90;;
26820;SDS011;37186;51.394;5.454;2022-07-06T06:45:58;79.30;;;76.20;;
26820;SDS011;37186;51.394;5.454;2022-07-06T06:48:59;69.55;;;66.88;;
26820;SDS011;37186;51.394;5.454;2022-07-06T06:51:59;70.18;;;67.55;;
26820;SDS011;37186;51.394;5.454;2022-07-06T06:55:00;72.45;;;69.70;;
26820;SDS011;37186;51.394;5.454;2022-07-06T06:58:01;71.07;;;68.35;;
26820;SDS011;37186;51.394;5.454;2022-07-06T07:01:01;72.18;;;69.43;;
26820;SDS011;37186;51.394;5.454;2022-07-06T07:04:02;82.30;;;79.10;;
26820;SDS011;37186;51.394;5.454;2022-07-06T07:07:02;79.47;;;76.38;;
26820;SDS011;37186;51.394;5.454;2022-07-06T07:10:04;83.45;;;80.20;;
26820;SDS011;37186;51.394;5.454;2022-07-06T07:13:05;80.40;;;77.28;;
26820;SDS011;37186;51.394;5.454;2022-07-06T07:16:06;83.65;;;80.38;;
26820;SDS011;37186;51.394;5.454;2022-07-06T07:19:06;93.40;;;89.65;;
26820;SDS011;37186;51.394;5.454;2022-07-06T07:22:07;102.82;;;98.65;;
26820;SDS011;37186;51.394;5.454;2022-07-06T07:25:08;102.97;;;98.78;;
26820;SDS011;37186;51.394;5.454;2022-07-06T07:28:09;108.60;;;104.10;;
26820;SDS011;37186;51.394;5.454;2022-07-06T07:31:09;114.35;;;109.55;;
26820;SDS011;37186;51.394;5.454;2022-07-06T07:34:10;114.13;;;109.32;;
26820;SDS011;37186;51.394;5.454;2022-07-06T07:37:10;114.57;;;109.75;;
26820;SDS011;37186;51.394;5.454;2022-07-06T07:40:11;126.60;;;121.25;;
26820;SDS011;37186;51.394;5.454;2022-07-06T07:43:11;125.30;;;119.93;;
26820;SDS011;37186;51.394;5.454;2022-07-06T07:46:12;122.35;;;117.20;;
26820;SDS011;37186;51.394;5.454;2022-07-06T07:49:12;140.82;;;134.80;;
26820;SDS011;37186;51.394;5.454;2022-07-06T07:52:13;123.60;;;118.30;;
26820;SDS011;37186;51.394;5.454;2022-07-06T07:55:14;132.07;;;126.32;;
26820;SDS011;37186;51.394;5.454;2022-07-06T07:58:14;140.30;;;134.05;;
26820;SDS011;37186;51.394;5.454;2022-07-06T08:01:15;137.35;;;131.30;;
26820;SDS011;37186;51.394;5.454;2022-07-06T08:04:15;136.70;;;130.57;;
26820;SDS011;37186;51.394;5.454;2022-07-06T08:07:16;130.27;;;124.32;;
26820;SDS011;37186;51.394;5.454;2022-07-06T08:10:17;122.80;;;117.13;;
26820;SDS011;37186;51.394;5.454;2022-07-06T08:13:17;121.80;;;116.18;;
26820;SDS011;37186;51.394;5.454;2022-07-06T08:16:18;115.05;;;109.68;;
26820;SDS011;37186;51.394;5.454;2022-07-06T08:19:18;110.70;;;105.60;;
26820;SDS011;37186;51.394;5.454;2022-07-06T08:22:19;86.22;;;82.35;;
26820;SDS011;37186;51.394;5.454;2022-07-06T08:25:19;87.25;;;83.32;;
26820;SDS011;37186;51.394;5.454;2022-07-06T08:28:20;88.05;;;83.97;;
26820;SDS011;37186;51.394;5.454;2022-07-06T08:31:20;82.90;;;79.07;;
26820;SDS011;37186;51.394;5.454;2022-07-06T08:34:21;81.30;;;77.47;;
26820;SDS011;37186;51.394;5.454;2022-07-06T08:37:22;83.15;;;79.30;;
26820;SDS011;37186;51.394;5.454;2022-07-06T08:40:23;72.35;;;69.03;;
26820;SDS011;37186;51.394;5.454;2022-07-06T08:43:24;69.28;;;65.97;;
26820;SDS011;37186;51.394;5.454;2022-07-06T08:46:25;67.45;;;64.30;;
26820;SDS011;37186;51.394;5.454;2022-07-06T08:49:28;71.88;;;68.45;;
26820;SDS011;37186;51.394;5.454;2022-07-06T08:52:29;72.07;;;68.63;;
26820;SDS011;37186;51.394;5.454;2022-07-06T08:55:30;67.50;;;64.38;;
26820;SDS011;37186;51.394;5.454;2022-07-06T08:58:31;68.60;;;65.50;;
26820;SDS011;37186;51.394;5.454;2022-07-06T09:01:33;69.35;;;66.20;;
26820;SDS011;37186;51.394;5.454;2022-07-06T09:04:33;68.93;;;65.82;;
26820;SDS011;37186;51.394;5.454;2022-07-06T09:07:35;75.72;;;72.25;;
26820;SDS011;37186;51.394;5.454;2022-07-06T09:10:36;71.68;;;68.38;;
26820;SDS011;37186;51.394;5.454;2022-07-06T09:13:37;75.90;;;72.47;;
26820;SDS011;37186;51.394;5.454;2022-07-06T09:16:37;72.57;;;69.13;;
26820;SDS011;37186;51.394;5.454;2022-07-06T09:19:38;70.47;;;67.18;;
26820;SDS011;37186;51.394;5.454;2022-07-06T09:22:39;73.35;;;70.00;;
26820;SDS011;37186;51.394;5.454;2022-07-06T09:25:40;70.72;;;67.50;;
26820;SDS011;37186;51.394;5.454;2022-07-06T09:28:44;76.63;;;73.18;;
26820;SDS011;37186;51.394;5.454;2022-07-06T09:31:55;75.95;;;72.50;;
26820;SDS011;37186;51.394;5.454;2022-07-06T09:34:56;75.28;;;71.97;;
26820;SDS011;37186;51.394;5.454;2022-07-06T09:38:04;78.47;;;75.10;;
26820;SDS011;37186;51.394;5.454;2022-07-06T09:41:12;82.78;;;79.32;;
26820;SDS011;37186;51.394;5.454;2022-07-06T09:44:12;81.28;;;77.90;;
26820;SDS011;37186;51.394;5.454;2022-07-06T09:47:18;84.05;;;80.50;;
26820;SDS011;37186;51.394;5.454;2022-07-06T09:50:19;95.72;;;91.80;;
26820;SDS011;37186;51.394;5.454;2022-07-06T09:53:20;99.63;;;95.53;;
26820;SDS011;37186;51.394;5.454;2022-07-06T09:56:22;95.65;;;91.78;;
26820;SDS011;37186;51.394;5.454;2022-07-06T09:59:38;99.82;;;95.75;;
26820;SDS011;37186;51.394;5.454;2022-07-06T10:02:39;97.50;;;93.50;;
26820;SDS011;37186;51.394;5.454;2022-07-06T10:05:41;98.28;;;94.28;;
26820;SDS011;37186;51.394;5.454;2022-07-06T10:08:43;96.25;;;92.38;;
26820;SDS011;37186;51.394;5.454;2022-07-06T10:11:49;104.15;;;99.90;;
26820;SDS011;37186;51.394;5.454;2022-07-06T10:14:54;100.22;;;96.20;;
26820;SDS011;37186;51.394;5.454;2022-07-06T10:17:55;102.90;;;98.70;;
26820;SDS011;37186;51.394;5.454;2022-07-06T10:20:56;109.72;;;105.18;;
26820;SDS011;37186;51.394;5.454;2022-07-06T10:23:58;107.43;;;102.97;;
26820;SDS011;37186;51.394;5.454;2022-07-06T10:27:00;98.85;;;94.88;;
26820;SDS011;37186;51.394;5.454;2022-07-06T10:30:02;112.57;;;107.90;;
26820;SDS011;37186;51.394;5.454;2022-07-06T10:33:03;102.85;;;98.68;;
26820;SDS011;37186;51.394;5.454;2022-07-06T10:36:03;106.47;;;102.10;;
26820;SDS011;37186;51.394;5.454;2022-07-06T10:39:04;110.13;;;105.57;;
26820;SDS011;37186;51.394;5.454;2022-07-06T10:42:41;108.60;;;104.20;;
26820;SDS011;37186;51.394;5.454;2022-07-06T10:46:05;100.43;;;96.40;;
26820;SDS011;37186;51.394;5.454;2022-07-06T10:49:15;113.60;;;108.95;;
26820;SDS011;37186;51.394;5.454;2022-07-06T10:52:17;114.85;;;110.15;;
26820;SDS011;37186;51.394;5.454;2022-07-06T10:55:36;111.65;;;107.13;;
26820;SDS011;37186;51.394;5.454;2022-07-06T10:58:39;106.00;;;101.65;;
26820;SDS011;37186;51.394;5.454;2022-07-06T11:08:59;98.93;;;94.95;;
26820;SDS011;37186;51.394;5.454;2022-07-06T11:12:11;104.82;;;100.63;;
26820;SDS011;37186;51.394;5.454;2022-07-06T11:15:46;124.50;;;119.38;;
26820;SDS011;37186;51.394;5.454;2022-07-06T11:18:47;125.45;;;120.20;;
26820;SDS011;37186;51.394;5.454;2022-07-06T11:21:50;125.45;;;120.25;;
26820;SDS011;37186;51.394;5.454;2022-07-06T11:24:57;122.10;;;117.05;;
26820;SDS011;37186;51.394;5.454;2022-07-06T11:27:58;133.60;;;128.00;;
26820;SDS011;37186;51.394;5.454;2022-07-06T11:30:59;128.38;;;123.00;;
26820;SDS011;37186;51.394;5.454;2022-07-06T11:34:00;130.77;;;125.32;;
26820;SDS011;37186;51.394;5.454;2022-07-06T11:37:04;126.95;;;121.63;;
26820;SDS011;37186;51.394;5.454;2022-07-06T11:40:13;123.93;;;118.72;;
26820;SDS011;37186;51.394;5.454;2022-07-06T11:43:17;115.88;;;111.13;;
26820;SDS011;37186;51.394;5.454;2022-07-06T11:49:20;137.18;;;131.35;;
26820;SDS011;37186;51.394;5.454;2022-07-06T11:52:20;131.88;;;126.38;;
26820;SDS011;37186;51.394;5.454;2022-07-06T11:55:23;137.90;;;132.13;;
26820;SDS011;37186;51.394;5.454;2022-07-06T11:58:24;141.27;;;135.35;;
26820;SDS011;37186;51.394;5.454;2022-07-06T12:01:25;147.00;;;140.93;;
26820;SDS011;37186;51.394;5.454;2022-07-06T12:04:27;142.40;;;136.35;;
26820;SDS011;37186;51.394;5.454;2022-07-06T12:07:28;149.85;;;143.52;;
26820;SDS011;37186;51.394;5.454;2022-07-06T12:10:32;141.20;;;135.25;;
26820;SDS011;37186;51.394;5.454;2022-07-06T12:13:36;139.32;;;133.40;;
26820;SDS011;37186;51.394;5.454;2022-07-06T12:16:39;152.20;;;145.60;;
26820;SDS011;37186;51.394;5.454;2022-07-06T12:19:40;146.07;;;139.80;;
26820;SDS011;37186;51.394;5.454;2022-07-06T12:22:42;135.60;;;129.88;;
26820;SDS011;37186;51.394;5.454;2022-07-06T12:25:44;125.40;;;120.10;;
26820;SDS011;37186;51.394;5.454;2022-07-06T12:28:45;112.72;;;108.13;;
26820;SDS011;37186;51.394;5.454;2022-07-06T12:31:58;131.05;;;125.53;;
26820;SDS011;37186;51.394;5.454;2022-07-06T12:35:05;123.90;;;118.80;;
26820;SDS011;37186;51.394;5.454;2022-07-06T12:38:07;123.00;;;117.93;;
26820;SDS011;37186;51.394;5.454;2022-07-06T12:41:08;107.95;;;103.60;;
26820;SDS011;37186;51.394;5.454;2022-07-06T12:44:09;110.60;;;106.13;;
26820;SDS011;37186;51.394;5.454;2022-07-06T12:47:10;109.75;;;105.28;;
26820;SDS011;37186;51.394;5.454;2022-07-06T12:50:11;118.78;;;113.78;;
26820;SDS011;37186;51.394;5.454;2022-07-06T12:53:25;108.65;;;104.20;;
26820;SDS011;37186;51.394;5.454;2022-07-06T12:56:26;109.55;;;105.13;;
26820;SDS011;37186;51.394;5.454;2022-07-06T12:59:27;154.35;;;147.27;;
26820;SDS011;37186;51.394;5.454;2022-07-06T13:05:30;173.65;;;165.57;;
26820;SDS011;37186;51.394;5.454;2022-07-06T13:08:31;155.23;;;148.23;;
26820;SDS011;37186;51.394;5.454;2022-07-06T13:11:31;175.07;;;166.85;;
26820;SDS011;37186;51.394;5.454;2022-07-06T13:14:33;182.48;;;173.80;;
26820;SDS011;37186;51.394;5.454;2022-07-06T13:17:34;175.68;;;167.70;;
26820;SDS011;37186;51.394;5.454;2022-07-06T13:20:36;154.55;;;147.57;;
26820;SDS011;37186;51.394;5.454;2022-07-06T13:23:37;147.90;;;141.38;;
26820;SDS011;37186;51.394;5.454;2022-07-06T13:26:37;178.32;;;170.32;;
26820;SDS011;37186;51.394;5.454;2022-07-06T13:29:38;174.48;;;166.55;;
26820;SDS011;37186;51.394;5.454;2022-07-06T13:32:39;191.63;;;182.57;;
26820;SDS011;37186;51.394;5.454;2022-07-06T13:35:39;142.35;;;135.90;;
26820;SDS011;37186;51.394;5.454;2022-07-06T13:38:40;139.77;;;133.60;;
26820;SDS011;37186;51.394;5.454;2022-07-06T13:41:40;126.35;;;120.95;;
26820;SDS011;37186;51.394;5.454;2022-07-06T13:44:41;133.10;;;127.25;;
26820;SDS011;37186;51.394;5.454;2022-07-06T13:47:41;146.40;;;139.80;;
26820;SDS011;37186;51.394;5.454;2022-07-06T13:50:42;154.02;;;146.95;;
26820;SDS011;37186;51.394;5.454;2022-07-06T13:53:42;133.82;;;127.93;;
26820;SDS011;37186;51.394;5.454;2022-07-06T13:56:43;125.75;;;120.30;;
26820;SDS011;37186;51.394;5.454;2022-07-06T13:59:43;139.32;;;133.48;;
26820;SDS011;37186;51.394;5.454;2022-07-06T14:02:46;175.98;;;168.27;;
26820;SDS011;37186;51.394;5.454;2022-07-06T14:05:47;180.77;;;173.15;;
26820;SDS011;37186;51.394;5.454;2022-07-06T14:08:48;176.40;;;168.88;;
26820;SDS011;37186;51.394;5.454;2022-07-06T14:11:48;193.00;;;184.75;;
26820;SDS011;37186;51.394;5.454;2022-07-06T14:14:49;199.80;;;191.52;;
26820;SDS011;37186;51.394;5.454;2022-07-06T14:17:50;187.85;;;180.15;;
26820;SDS011;37186;51.394;5.454;2022-07-06T14:20:51;195.00;;;186.75;;
26820;SDS011;37186;51.394;5.454;2022-07-06T14:23:52;195.15;;;187.02;;
26820;SDS011;37186;51.394;5.454;2022-07-06T14:26:52;206.45;;;197.57;;
26820;SDS011;37186;51.394;5.454;2022-07-06T14:29:53;227.13;;;216.32;;
26820;SDS011;37186;51.394;5.454;2022-07-06T14:32:53;219.93;;;209.45;;
26820;SDS011;37186;51.394;5.454;2022-07-06T14:35:54;245.98;;;233.98;;
26820;SDS011;37186;51.394;5.454;2022-07-06T14:38:54;259.38;;;246.98;;
26820;SDS011;37186;51.394;5.454;2022-07-06T14:41:55;246.45;;;234.23;;
26820;SDS011;37186;51.394;5.454;2022-07-06T14:44:55;279.75;;;265.95;;
26820;SDS011;37186;51.394;5.454;2022-07-06T14:47:56;243.52;;;232.18;;
26820;SDS011;37186;51.394;5.454;2022-07-06T14:50:56;229.13;;;218.48;;
26820;SDS011;37186;51.394;5.454;2022-07-06T14:53:57;245.60;;;234.45;;
26820;SDS011;37186;51.394;5.454;2022-07-06T14:56:58;242.13;;;230.93;;
26820;SDS011;37186;51.394;5.454;2022-07-06T14:59:58;249.30;;;237.88;;
26820;SDS011;37186;51.394;5.454;2022-07-06T15:02:59;194.13;;;184.43;;
26820;SDS011;37186;51.394;5.454;2022-07-06T15:05:59;224.05;;;213.95;;
26820;SDS011;37186;51.394;5.454;2022-07-06T15:09:00;246.02;;;234.73;;
26820;SDS011;37186;51.394;5.454;2022-07-06T15:12:04;266.58;;;254.25;;
26820;SDS011;37186;51.394;5.454;2022-07-06T15:15:04;251.45;;;239.48;;
26820;SDS011;37186;51.394;5.454;2022-07-06T15:18:05;201.80;;;191.80;;
26820;SDS011;37186;51.394;5.454;2022-07-06T15:21:06;207.88;;;198.38;;
26820;SDS011;37186;51.394;5.454;2022-07-06T15:24:09;217.80;;;207.48;;
26820;SDS011;37186;51.394;5.454;2022-07-06T15:27:09;238.02;;;227.15;;
26820;SDS011;37186;51.394;5.454;2022-07-06T15:30:10;240.90;;;229.52;;
26820;SDS011;37186;51.394;5.454;2022-07-06T15:33:11;201.18;;;191.60;;
26820;SDS011;37186;51.394;5.454;2022-07-06T15:36:11;206.98;;;197.50;;
26820;SDS011;37186;51.394;5.454;2022-07-06T15:39:12;210.07;;;200.43;;
26820;SDS011;37186;51.394;5.454;2022-07-06T15:42:12;222.50;;;212.13;;
26820;SDS011;37186;51.394;5.454;2022-07-06T15:45:13;231.00;;;220.25;;
26820;SDS011;37186;51.394;5.454;2022-07-06T15:48:15;228.68;;;218.02;;
26820;SDS011;37186;51.394;5.454;2022-07-06T15:51:15;245.25;;;233.85;;
26820;SDS011;37186;51.394;5.454;2022-07-06T15:54:16;233.40;;;222.45;;
26820;SDS011;37186;51.394;5.454;2022-07-06T15:57:16;223.75;;;213.13;;
26820;SDS011;37186;51.394;5.454;2022-07-06T16:00:17;220.00;;;209.05;;
26820;SDS011;37186;51.394;5.454;2022-07-06T16:03:18;217.23;;;206.65;;
26820;SDS011;37186;51.394;5.454;2022-07-06T16:06:18;231.98;;;221.07;;
26820;SDS011;37186;51.394;5.454;2022-07-06T16:09:19;230.27;;;219.30;;
26820;SDS011;37186;51.394;5.454;2022-07-06T16:12:19;235.93;;;224.70;;
26820;SDS011;37186;51.394;5.454;2022-07-06T16:15:23;234.38;;;223.20;;
26820;SDS011;37186;51.394;5.454;2022-07-06T16:18:24;235.25;;;223.93;;
26820;SDS011;37186;51.394;5.454;2022-07-06T16:21:25;220.63;;;209.93;;
26820;SDS011;37186;51.394;5.454;2022-07-06T16:24:25;212.40;;;201.70;;
26820;SDS011;37186;51.394;5.454;2022-07-06T16:27:26;224.45;;;213.40;;
26820;SDS011;37186;51.394;5.454;2022-07-06T16:30:26;237.05;;;225.18;;
26820;SDS011;37186;51.394;5.454;2022-07-06T16:33:27;213.80;;;203.52;;
26820;SDS011;37186;51.394;5.454;2022-07-06T16:36:27;229.27;;;218.23;;
26820;SDS011;37186;51.394;5.454;2022-07-06T16:39:28;225.63;;;214.70;;
26820;SDS011;37186;51.394;5.454;2022-07-06T16:42:29;213.73;;;203.40;;
26820;SDS011;37186;51.394;5.454;2022-07-06T16:45:29;218.98;;;208.15;;
26820;SDS011;37186;51.394;5.454;2022-07-06T16:48:30;219.98;;;209.05;;
26820;SDS011;37186;51.394;5.454;2022-07-06T16:51:31;226.50;;;215.45;;
26820;SDS011;37186;51.394;5.454;2022-07-06T16:54:32;224.00;;;213.15;;
26820;SDS011;37186;51.394;5.454;2022-07-06T16:57:33;208.60;;;198.15;;
26820;SDS011;37186;51.394;5.454;2022-07-06T17:00:33;215.38;;;204.68;;
26820;SDS011;37186;51.394;5.454;2022-07-06T17:03:34;219.88;;;208.90;;
26820;SDS011;37186;51.394;5.454;2022-07-06T17:06:34;220.52;;;209.70;;
26820;SDS011;37186;51.394;5.454;2022-07-06T17:09:35;219.15;;;208.38;;
26820;SDS011;37186;51.394;5.454;2022-07-06T17:12:35;215.45;;;205.02;;
26820;SDS011;37186;51.394;5.454;2022-07-06T17:15:36;223.13;;;212.30;;
26820;SDS011;37186;51.394;5.454;2022-07-06T17:18:36;215.13;;;204.77;;
26820;SDS011;37186;51.394;5.454;2022-07-06T17:21:37;218.07;;;207.88;;
26820;SDS011;37186;51.394;5.454;2022-07-06T17:24:37;195.93;;;186.75;;
26820;SDS011;37186;51.394;5.454;2022-07-06T17:27:38;200.65;;;191.38;;
26820;SDS011;37186;51.394;5.454;2022-07-06T17:30:38;207.95;;;198.27;;
26820;SDS011;37186;51.394;5.454;2022-07-06T17:33:39;191.43;;;182.55;;
26820;SDS011;37186;51.394;5.454;2022-07-06T17:36:39;202.52;;;193.18;;
26820;SDS011;37186;51.394;5.454;2022-07-06T17:39:40;189.40;;;180.65;;
26820;SDS011;37186;51.394;5.454;2022-07-06T17:42:41;182.20;;;173.80;;